Time;durP1;ratioP1;P1;durP2;ratioP2;P2;SDS_P1;SDS_P2;PMS_P1;PMS_P2;Temp;Humidity;BMP_temperature;BMP_pressure;BME280_temperature;BME280_humidity;BME280_pressure;Samples;Min_cycle;Max_cycle;Signal;HPM_P1;HPM_P2
2022/06/25 00:01:25;;;;;;;5.40;3.38;;;25.10;54.90;;;;;;6156115;28;80848;-73
2022/06/25 00:07:45;;;;;;;8.93;3.33;;;25.10;54.90;;;;;;6148799;28;80409;-73
2022/06/25 00:10:45;;;;;;;6.68;3.70;;;25.10;54.90;;;;;;6144942;28;80958;-72
2022/06/25 00:13:46;;;;;;;6.07;3.47;;;25.10;55.40;;;;;;6152006;28;81622;-74
2022/06/25 00:16:46;;;;;;;5.70;2.72;;;25.10;54.90;;;;;;6150084;28;80485;-75
2022/06/25 00:19:47;;;;;;;8.93;3.28;;;25.10;55.30;;;;;;6157291;28;81616;-74
2022/06/25 00:22:47;;;;;;;7.45;3.38;;;25.10;55.00;;;;;;6153383;28;80402;-74
2022/06/25 00:25:48;;;;;;;4.85;2.80;;;25.10;55.00;;;;;;6158965;28;80705;-78
2022/06/25 00:28:48;;;;;;;5.80;4.18;;;25.10;55.10;;;;;;6151104;28;80714;-78
2022/06/25 00:31:49;;;;;;;7.10;3.65;;;25.10;55.00;;;;;;6155744;28;80406;-75
2022/06/25 00:34:49;;;;;;;7.57;3.63;;;25.10;55.10;;;;;;6150936;28;81664;-76
2022/06/25 00:37:50;;;;;;;7.28;3.60;;;25.10;55.10;;;;;;6152702;28;80489;-74
2022/06/25 00:40:50;;;;;;;5.75;4.10;;;25.10;55.00;;;;;;6154880;28;80390;-75
2022/06/25 00:43:51;;;;;;;6.88;3.13;;;25.00;55.30;;;;;;6159949;28;81092;-75
2022/06/25 00:46:51;;;;;;;4.60;3.58;;;25.00;55.30;;;;;;6158253;28;80247;-75
2022/06/25 00:49:52;;;;;;;5.88;3.53;;;25.00;55.50;;;;;;6150018;28;80431;-74
2022/06/25 00:52:53;;;;;;;8.80;3.90;;;24.90;55.50;;;;;;6161804;28;82935;-73
2022/06/25 00:55:53;;;;;;;6.28;3.15;;;24.90;55.90;;;;;;6158852;28;80417;-74
2022/06/25 00:58:55;;;;;;;6.38;4.00;;;24.80;55.70;;;;;;6149806;28;80349;-75
2022/06/25 01:01:55;;;;;;;5.88;3.42;;;24.70;55.70;;;;;;6159124;28;82432;-74
2022/06/25 01:04:56;;;;;;;6.63;3.63;;;24.70;55.90;;;;;;6162774;28;80453;-75
2022/06/25 01:07:56;;;;;;;4.45;3.50;;;24.70;56.00;;;;;;6162603;28;81549;-75
2022/06/25 01:10:57;;;;;;;11.65;3.95;;;24.60;56.00;;;;;;6163036;28;80197;-74
2022/06/25 01:13:57;;;;;;;5.90;3.85;;;24.60;56.20;;;;;;6161781;28;82206;-74
2022/06/25 01:16:58;;;;;;;4.88;3.63;;;24.60;56.00;;;;;;6160624;28;82335;-75
2022/06/25 01:19:59;;;;;;;7.47;3.33;;;24.70;56.20;;;;;;6153804;28;81684;-75
2022/06/25 01:23:00;;;;;;;5.35;4.07;;;24.70;55.90;;;;;;6161666;28;81956;-74
2022/06/25 01:26:01;;;;;;;3.78;3.35;;;24.60;55.80;;;;;;6160331;28;81548;-73
2022/06/25 01:29:01;;;;;;;6.93;4.07;;;24.70;56.00;;;;;;6161471;28;80266;-74
2022/06/25 01:32:02;;;;;;;5.78;3.92;;;24.70;55.90;;;;;;6160962;28;83054;-72
2022/06/25 01:35:03;;;;;;;7.70;3.95;;;24.70;56.00;;;;;;6160802;28;82023;-72
2022/06/25 01:38:03;;;;;;;10.10;3.20;;;24.60;55.80;;;;;;6157259;28;83907;-72
2022/06/25 01:41:07;;;;;;;7.13;4.13;;;24.60;56.10;;;;;;6162257;28;81176;-72
2022/06/25 01:44:07;;;;;;;7.72;3.60;;;24.50;56.10;;;;;;6161413;28;80446;-72
2022/06/25 01:47:07;;;;;;;7.20;3.75;;;24.40;56.30;;;;;;6160276;28;83195;-72
2022/06/25 01:50:08;;;;;;;5.35;3.72;;;24.50;56.50;;;;;;6160564;28;83343;-72
2022/06/25 01:53:08;;;;;;;7.28;3.40;;;24.50;56.20;;;;;;6161703;28;80392;-72
2022/06/25 01:56:09;;;;;;;5.00;3.63;;;24.50;56.20;;;;;;6160124;28;83761;-70
2022/06/25 01:59:10;;;;;;;11.15;3.97;;;24.50;56.20;;;;;;6158326;28;82679;-73
2022/06/25 02:02:11;;;;;;;6.45;3.88;;;24.60;56.90;;;;;;6175983;28;87903;-72
2022/06/25 02:05:11;;;;;;;8.27;4.07;;;24.70;56.50;;;;;;6149287;28;83102;-72
2022/06/25 02:08:13;;;;;;;4.05;3.40;;;24.70;56.50;;;;;;6158858;28;81240;-71
2022/06/25 02:11:14;;;;;;;5.38;3.50;;;24.70;55.80;;;;;;6156517;28;82163;-72
2022/06/25 02:14:14;;;;;;;5.55;3.58;;;24.60;56.10;;;;;;6159159;28;80624;-69
2022/06/25 02:17:14;;;;;;;10.15;3.80;;;24.60;55.90;;;;;;6160807;28;80796;-71
2022/06/25 02:20:16;;;;;;;7.78;3.88;;;24.60;56.00;;;;;;6158223;28;82135;-70
2022/06/25 02:23:16;;;;;;;7.78;3.47;;;24.60;56.40;;;;;;6154620;28;82756;-73
2022/06/25 02:26:17;;;;;;;7.05;3.67;;;24.60;56.40;;;;;;6161222;28;80282;-74
2022/06/25 02:29:17;;;;;;;9.25;3.63;;;24.70;56.50;;;;;;6159494;28;83080;-72
2022/06/25 02:32:18;;;;;;;4.85;3.67;;;24.70;56.30;;;;;;6160545;28;80553;-72
2022/06/25 02:35:18;;;;;;;4.78;3.35;;;24.70;56.70;;;;;;6148207;28;81819;-72
2022/06/25 02:38:19;;;;;;;11.55;3.45;;;24.80;56.70;;;;;;6160698;28;80943;-72
2022/06/25 02:41:24;;;;;;;6.00;4.00;;;24.70;56.30;;;;;;6159017;28;82848;-72
2022/06/25 02:44:25;;;;;;;4.85;3.63;;;24.80;56.30;;;;;;6159408;28;83616;-72
2022/06/25 02:47:31;;;;;;;5.13;3.80;;;24.80;55.90;;;;;;6158957;28;82254;-73
2022/06/25 02:50:41;;;;;;;6.55;3.63;;;24.80;56.30;;;;;;6159152;28;82936;-73
2022/06/25 02:53:44;;;;;;;5.03;3.55;;;24.80;55.90;;;;;;6159143;28;83453;-74
2022/06/25 03:00:07;;;;;;;5.15;3.30;;;24.80;56.10;;;;;;6150432;28;83026;-76
2022/06/25 03:03:07;;;;;;;7.18;4.13;;;24.80;55.90;;;;;;6160721;28;80311;-74
2022/06/25 03:06:08;;;;;;;7.97;4.05;;;24.80;56.10;;;;;;6146567;28;82710;-74
2022/06/25 03:09:09;;;;;;;7.63;3.97;;;24.80;55.90;;;;;;6159040;28;83295;-73
2022/06/25 03:12:12;;;;;;;6.32;3.50;;;24.80;56.10;;;;;;6158917;28;83134;-73
2022/06/25 03:15:15;;;;;;;10.10;3.88;;;24.70;56.10;;;;;;6142458;28;81362;-74
2022/06/25 03:18:16;;;;;;;5.20;3.65;;;24.70;56.30;;;;;;6158145;28;83071;-74
2022/06/25 03:21:16;;;;;;;10.98;4.00;;;24.70;55.80;;;;;;6151711;28;80253;-74
2022/06/25 03:24:17;;;;;;;7.82;4.25;;;24.70;56.10;;;;;;6154886;28;82852;-73
2022/06/25 03:27:18;;;;;;;7.60;3.65;;;24.60;56.00;;;;;;6158664;28;83182;-74
2022/06/25 03:30:23;;;;;;;11.30;4.22;;;24.60;56.30;;;;;;6163186;28;81501;-76
2022/06/25 03:33:24;;;;;;;7.85;3.65;;;24.60;56.00;;;;;;6174902;28;82181;-74
2022/06/25 03:36:39;;;;;;;6.53;4.07;;;24.60;56.30;;;;;;6155605;28;82736;-75
2022/06/25 03:39:39;;;;;;;7.95;3.83;;;24.60;56.90;;;;;;6142345;28;82457;-74
2022/06/25 03:42:40;;;;;;;6.32;4.00;;;24.70;56.70;;;;;;6145013;28;80618;-75
2022/06/25 03:45:43;;;;;;;8.15;3.70;;;24.70;56.80;;;;;;6158441;28;83218;-74
2022/06/25 03:48:44;;;;;;;8.98;4.53;;;24.70;56.30;;;;;;6158803;28;83097;-74
2022/06/25 03:51:59;;;;;;;7.53;3.88;;;24.70;56.10;;;;;;6157776;28;82793;-74
2022/06/25 03:54:59;;;;;;;6.55;3.97;;;24.70;55.70;;;;;;6159979;28;80637;-73
2022/06/25 03:57:59;;;;;;;7.95;3.90;;;24.70;56.30;;;;;;6159602;28;80387;-73
2022/06/25 04:01:07;;;;;;;6.07;4.00;;;24.70;56.60;;;;;;6158367;28;83301;-73
2022/06/25 04:04:09;;;;;;;6.43;3.97;;;24.80;56.20;;;;;;6159824;28;80780;-73
2022/06/25 04:07:09;;;;;;;10.60;3.78;;;24.80;56.10;;;;;;6147635;28;80984;-73
2022/06/25 04:10:10;;;;;;;7.13;4.10;;;24.70;56.00;;;;;;6164566;28;82846;-74
2022/06/25 04:13:11;;;;;;;11.27;3.97;;;24.70;56.00;;;;;;6155479;28;83757;-73
2022/06/25 04:16:12;;;;;;;5.13;3.97;;;24.70;55.80;;;;;;6157096;28;83006;-74
2022/06/25 04:19:13;;;;;;;7.90;4.28;;;24.70;56.00;;;;;;6159054;28;80353;-74
2022/06/25 04:22:14;;;;;;;6.22;3.80;;;24.70;56.50;;;;;;6146307;28;82584;-73
2022/06/25 04:25:15;;;;;;;6.97;3.50;;;24.70;56.20;;;;;;6155053;28;83269;-71
2022/06/25 04:31:45;;;;;;;7.10;4.20;;;24.80;56.40;;;;;;6152718;28;81532;-71
2022/06/25 04:35:12;;;;;;;;;;;24.80;55.80;;;;;;6158487;28;85614;-70
2022/06/25 04:38:14;;;;;;;4.88;3.40;;;24.80;56.00;;;;;;6163513;28;83334;-73
2022/06/25 04:41:16;;;;;;;6.20;3.80;;;24.80;56.00;;;;;;6157184;28;80467;-72
2022/06/25 04:44:19;;;;;;;6.75;4.28;;;24.80;56.00;;;;;;6157471;28;83131;-73
2022/06/25 04:47:20;;;;;;;11.20;4.13;;;24.80;55.90;;;;;;6153009;28;82552;-69
2022/06/25 04:50:32;;;;;;;5.95;3.92;;;24.80;56.10;;;;;;6159887;28;81912;-72
2022/06/25 04:53:33;;;;;;;5.85;4.38;;;24.80;56.30;;;;;;6157168;28;81304;-72
2022/06/25 04:56:36;;;;;;;5.45;3.75;;;24.90;56.20;;;;;;6156771;28;82712;-70
2022/06/25 04:59:36;;;;;;;4.57;3.70;;;24.90;56.20;;;;;;6156831;28;82803;-71
2022/06/25 05:02:45;;;;;;;13.45;4.47;;;24.90;56.40;;;;;;6156116;28;80794;-71
2022/06/25 05:05:48;;;;;;;9.48;3.75;;;24.90;56.20;;;;;;6150925;28;82937;-70
2022/06/25 05:08:49;;;;;;;5.22;4.07;;;24.90;56.80;;;;;;6153467;28;83421;-69
2022/06/25 05:11:50;;;;;;;6.03;3.75;;;25.00;57.50;;;;;;6149128;28;82920;-67
2022/06/25 05:14:50;;;;;;;5.47;3.90;;;25.00;57.50;;;;;;6145175;28;80413;-70
2022/06/25 05:17:51;;;;;;;9.20;4.10;;;25.10;57.10;;;;;;6152276;28;83062;-69
2022/06/25 05:20:55;;;;;;;11.30;4.00;;;25.10;57.20;;;;;;6151723;28;82194;-71
2022/06/25 05:23:55;;;;;;;7.93;4.03;;;25.10;57.10;;;;;;6152333;28;83855;-72
2022/06/25 05:26:56;;;;;;;6.28;3.78;;;25.10;57.00;;;;;;6153757;28;83770;-71
2022/06/25 05:29:57;;;;;;;12.75;4.40;;;25.20;57.60;;;;;;6153981;28;82285;-72
2022/06/25 05:32:57;;;;;;;7.00;4.25;;;25.20;58.30;;;;;;6156274;28;83248;-72
2022/06/25 05:35:59;;;;;;;12.23;4.15;;;25.20;57.60;;;;;;6158851;28;82724;-69
2022/06/25 05:38:59;;;;;;;11.75;4.68;;;25.20;57.60;;;;;;6156083;28;80567;-74
2022/06/25 05:42:00;;;;;;;9.05;3.97;;;25.30;58.00;;;;;;6151091;28;81936;-72
2022/06/25 05:45:00;;;;;;;9.32;4.07;;;25.30;58.10;;;;;;6151280;28;80489;-72
2022/06/25 05:48:00;;;;;;;6.90;4.03;;;25.30;58.00;;;;;;6142026;28;80932;-72
2022/06/25 05:51:01;;;;;;;9.77;4.38;;;25.30;57.90;;;;;;6140255;28;81403;-70
2022/06/25 05:54:02;;;;;;;5.35;4.50;;;25.30;57.80;;;;;;6161367;28;80726;-73
2022/06/25 05:57:02;;;;;;;9.45;4.93;;;25.30;57.50;;;;;;6162266;28;80823;-70
2022/06/25 06:00:03;;;;;;;12.68;4.88;;;25.40;58.30;;;;;;6161757;28;80906;-72
2022/06/25 06:03:12;;;;;;;7.80;4.90;;;25.40;58.20;;;;;;6159269;28;80419;-70
2022/06/25 06:06:12;;;;;;;9.20;5.70;;;25.40;58.20;;;;;;6152842;28;80429;-74
2022/06/25 06:09:13;;;;;;;9.60;4.75;;;25.40;58.00;;;;;;6162450;28;80287;-73
2022/06/25 06:12:13;;;;;;;16.75;5.60;;;25.50;58.20;;;;;;6161768;28;80505;-71
2022/06/25 06:15:14;;;;;;;10.45;5.05;;;25.50;58.30;;;;;;6159883;28;80348;-73
2022/06/25 06:18:14;;;;;;;6.65;4.65;;;25.50;58.20;;;;;;6157652;28;83631;-73
2022/06/25 06:21:15;;;;;;;13.85;5.18;;;25.50;58.40;;;;;;6157329;28;80370;-71
2022/06/25 06:24:15;;;;;;;6.88;4.55;;;25.50;57.70;;;;;;6145674;28;80463;-71
2022/06/25 06:27:16;;;;;;;4.65;4.05;;;25.50;58.60;;;;;;6141833;28;80634;-70
2022/06/25 06:30:16;;;;;;;8.30;4.50;;;25.50;58.70;;;;;;6140669;28;87730;-70
2022/06/25 06:33:17;;;;;;;6.50;4.55;;;25.60;59.00;;;;;;6157299;28;83079;-73
2022/06/25 06:36:18;;;;;;;6.65;4.78;;;25.60;58.30;;;;;;6158641;28;80426;-71
2022/06/25 06:39:18;;;;;;;7.75;4.50;;;25.60;58.20;;;;;;6162558;28;80307;-70
2022/06/25 06:42:18;;;;;;;6.30;4.10;;;25.60;58.50;;;;;;6157174;28;80585;-71
2022/06/25 06:45:19;;;;;;;14.25;4.57;;;25.60;58.20;;;;;;6148282;28;80663;-67
2022/06/25 06:48:19;;;;;;;7.35;3.45;;;25.60;58.50;;;;;;6150150;28;80876;-69
2022/06/25 06:51:20;;;;;;;6.38;4.13;;;25.60;58.80;;;;;;6153284;28;80915;-69
2022/06/25 06:54:20;;;;;;;9.27;4.15;;;25.60;58.60;;;;;;6159694;28;80415;-69
2022/06/25 06:57:21;;;;;;;9.65;4.25;;;25.70;58.50;;;;;;6149880;28;80290;-69
2022/06/25 07:00:21;;;;;;;10.43;4.45;;;25.70;58.30;;;;;;6149245;28;80430;-70
2022/06/25 07:03:22;;;;;;;5.00;3.65;;;25.70;58.50;;;;;;6158296;28;80559;-68
2022/06/25 07:06:22;;;;;;;5.95;4.53;;;25.70;58.60;;;;;;6158152;28;80881;-70
2022/06/25 07:09:23;;;;;;;6.63;3.88;;;25.80;58.90;;;;;;6154000;28;82036;-71
2022/06/25 07:12:23;;;;;;;6.18;3.90;;;25.80;58.60;;;;;;6160451;28;80254;-69
2022/06/25 07:15:24;;;;;;;9.52;4.07;;;25.80;58.80;;;;;;6150352;28;80517;-68
2022/06/25 07:18:24;;;;;;;5.70;3.63;;;25.80;58.60;;;;;;6155651;28;81872;-75
2022/06/25 07:21:25;;;;;;;12.70;4.63;;;25.90;58.50;;;;;;6142848;28;80382;-71
2022/06/25 07:24:25;;;;;;;6.95;4.35;;;25.80;58.50;;;;;;6156667;28;81140;-71
2022/06/25 07:27:26;;;;;;;6.53;3.95;;;25.80;58.30;;;;;;6149074;28;80605;-72
2022/06/25 07:30:26;;;;;;;7.15;3.95;;;25.90;58.70;;;;;;6164221;28;81043;-68
2022/06/25 07:33:29;;;;;;;5.75;3.83;;;25.90;58.60;;;;;;6154911;28;81391;-68
2022/06/25 07:36:29;;;;;;;5.78;4.35;;;25.90;58.10;;;;;;6141286;28;80921;-71
2022/06/25 07:39:30;;;;;;;10.63;3.30;;;25.90;57.70;;;;;;6142260;28;82528;-72
2022/06/25 07:42:31;;;;;;;8.82;4.10;;;25.90;57.60;;;;;;6141138;28;80532;-72
2022/06/25 07:45:32;;;;;;;4.93;3.60;;;25.90;57.50;;;;;;6146538;28;80438;-72
2022/06/25 07:48:32;;;;;;;11.27;3.38;;;25.90;57.40;;;;;;6138540;28;80616;-72
2022/06/25 07:54:52;;;;;;;6.97;2.85;;;25.90;57.70;;;;;;6140729;28;80225;-71
2022/06/25 07:57:52;;;;;;;13.30;3.60;;;25.90;57.00;;;;;;6154639;28;80494;-69
2022/06/25 08:00:53;;;;;;;4.70;3.10;;;25.90;55.50;;;;;;6158837;28;80965;-71
2022/06/25 08:03:53;;;;;;;17.63;3.17;;;26.00;56.50;;;;;;6151248;28;81257;-72
2022/06/25 08:06:56;;;;;;;3.38;2.83;;;26.00;56.70;;;;;;6151230;28;80410;-75
2022/06/25 08:09:56;;;;;;;3.15;2.50;;;26.00;54.80;;;;;;6158583;28;80883;-70
2022/06/25 08:12:57;;;;;;;4.53;2.60;;;26.00;55.30;;;;;;6158684;28;80362;-69
2022/06/25 08:15:58;;;;;;;5.18;2.38;;;25.90;54.60;;;;;;6159475;28;80815;-71
2022/06/25 08:18:58;;;;;;;4.18;2.88;;;26.00;53.50;;;;;;6151153;28;80522;-70
2022/06/25 08:21:59;;;;;;;7.30;2.90;;;26.00;53.90;;;;;;6157702;28;80226;-67
2022/06/25 08:24:59;;;;;;;6.00;2.72;;;26.00;53.10;;;;;;6159408;28;80466;-70
2022/06/25 08:28:00;;;;;;;5.32;2.95;;;26.00;53.20;;;;;;6158005;28;80562;-70
2022/06/25 08:31:00;;;;;;;5.90;2.70;;;26.10;53.50;;;;;;6152690;28;80822;-70
2022/06/25 08:34:00;;;;;;;3.92;2.58;;;26.10;53.20;;;;;;6159097;28;80627;-69
2022/06/25 08:37:01;;;;;;;7.20;3.00;;;26.10;53.80;;;;;;6158707;28;80200;-70
2022/06/25 08:40:01;;;;;;;3.08;2.58;;;26.10;53.50;;;;;;6159579;28;80436;-70
2022/06/25 08:43:02;;;;;;;3.33;2.40;;;26.10;53.30;;;;;;6159748;28;81672;-71
2022/06/25 08:46:03;;;;;;;3.40;2.55;;;26.10;53.10;;;;;;6159648;28;80620;-71
2022/06/25 08:49:04;;;;;;;5.75;2.72;;;26.20;53.80;;;;;;6159818;28;80332;-72
2022/06/25 08:52:04;;;;;;;5.65;2.50;;;26.20;53.30;;;;;;6159190;28;80481;-71
2022/06/25 08:55:05;;;;;;;5.90;2.75;;;26.30;53.10;;;;;;6158064;28;81481;-70
2022/06/25 08:58:05;;;;;;;4.60;2.50;;;26.30;53.60;;;;;;6159418;28;80272;-70
2022/06/25 09:01:06;;;;;;;2.88;2.55;;;26.30;53.20;;;;;;6153450;28;80338;-72
2022/06/25 09:04:06;;;;;;;5.18;2.60;;;26.30;52.70;;;;;;6159509;28;81950;-72
2022/06/25 09:07:07;;;;;;;8.57;3.47;;;26.40;53.00;;;;;;6153002;28;81610;-71
2022/06/25 09:10:07;;;;;;;8.23;3.97;;;26.40;53.70;;;;;;6157125;28;80776;-72
2022/06/25 09:13:11;;;;;;;7.80;3.30;;;26.40;54.60;;;;;;6163850;28;80694;-71
2022/06/25 09:16:11;;;;;;;8.52;3.40;;;26.40;54.70;;;;;;6162001;28;80409;-70
2022/06/25 09:19:12;;;;;;;6.72;3.60;;;26.40;55.30;;;;;;6161130;28;80694;-71
2022/06/25 09:22:12;;;;;;;11.43;3.72;;;26.40;55.70;;;;;;6154069;28;80829;-72
2022/06/25 09:25:13;;;;;;;6.22;3.13;;;26.40;54.90;;;;;;6162452;28;83209;-73
2022/06/25 09:28:13;;;;;;;4.35;2.67;;;26.50;53.40;;;;;;6156756;28;81090;-72
2022/06/25 09:31:13;;;;;;;9.73;2.50;;;26.50;52.90;;;;;;6147362;28;81892;-67
2022/06/25 09:34:14;;;;;;;2.83;2.13;;;26.60;51.70;;;;;;6160119;28;80440;-73
2022/06/25 09:37:14;;;;;;;4.40;2.35;;;26.60;51.50;;;;;;6163230;28;80563;-76
2022/06/25 09:40:15;;;;;;;4.22;2.65;;;26.80;48.50;;;;;;6161316;28;83493;-71
2022/06/25 09:43:16;;;;;;;3.63;2.08;;;26.80;49.50;;;;;;6156752;28;80990;-71
2022/06/25 09:46:16;;;;;;;5.72;2.70;;;26.90;49.60;;;;;;6159058;28;80411;-72
2022/06/25 09:49:17;;;;;;;5.80;2.40;;;26.90;49.30;;;;;;6154052;28;80437;-73
2022/06/25 09:52:17;;;;;;;8.95;6.05;;;26.90;49.30;;;;;;6162412;28;80415;-73
2022/06/25 09:55:18;;;;;;;7.75;4.20;;;26.90;49.20;;;;;;6162196;28;80821;-71
2022/06/25 09:58:18;;;;;;;6.50;5.07;;;27.00;48.80;;;;;;6161210;28;80718;-72
2022/06/25 10:01:19;;;;;;;6.43;4.93;;;27.00;49.10;;;;;;6156471;28;81076;-71
2022/06/25 10:04:20;;;;;;;7.15;4.32;;;26.90;49.80;;;;;;6144304;28;80349;-72
2022/06/25 10:07:59;;;;;;;4.47;3.75;;;27.00;49.70;;;;;;6144129;28;80905;-72
2022/06/25 10:10:42;;;;;;;3.50;2.67;;;27.00;49.00;;;;;;6151819;28;82383;-70
2022/06/25 10:13:42;;;;;;;7.60;3.88;;;27.10;48.00;;;;;;6161102;28;80430;-69
2022/06/25 10:16:43;;;;;;;3.78;3.22;;;27.10;48.90;;;;;;6158303;28;81684;-68
2022/06/25 10:19:44;;;;;;;3.85;3.00;;;27.10;48.80;;;;;;6161146;28;80910;-68
2022/06/25 10:22:44;;;;;;;5.53;2.70;;;27.10;48.80;;;;;;6161977;28;80795;-67
2022/06/25 10:25:45;;;;;;;8.23;2.30;;;27.10;49.60;;;;;;6160628;28;80524;-71
2022/06/25 10:28:46;;;;;;;3.15;2.45;;;27.00;49.10;;;;;;6158825;28;80820;-65
2022/06/25 10:31:47;;;;;;;5.43;2.60;;;27.00;48.60;;;;;;6160064;28;80398;-71
2022/06/25 10:34:47;;;;;;;4.38;2.47;;;27.00;48.50;;;;;;6152327;28;80418;-71
2022/06/25 10:37:48;;;;;;;3.88;2.60;;;27.00;48.80;;;;;;6161080;28;80303;-74
2022/06/25 10:40:49;;;;;;;2.55;2.10;;;27.10;46.30;;;;;;6160677;28;81567;-73
2022/06/25 10:43:54;;;;;;;4.32;2.63;;;27.30;45.80;;;;;;6157246;28;81018;-71
2022/06/25 10:46:54;;;;;;;4.03;2.20;;;27.40;46.20;;;;;;6156161;28;80361;-72
2022/06/25 10:49:55;;;;;;;8.35;2.20;;;27.60;43.50;;;;;;6161954;28;81425;-71
2022/06/25 10:52:55;;;;;;;2.72;2.20;;;27.60;44.30;;;;;;6153839;28;80314;-72
2022/06/25 10:55:56;;;;;;;3.50;2.60;;;27.50;44.50;;;;;;6153213;28;80565;-71
2022/06/25 10:58:57;;;;;;;6.18;2.38;;;27.40;46.20;;;;;;6159295;28;80355;-72
2022/06/25 11:01:57;;;;;;;2.58;2.25;;;27.40;45.90;;;;;;6146342;28;80895;-72
2022/06/25 11:04:58;;;;;;;2.88;2.20;;;27.60;45.50;;;;;;6161142;28;80712;-70
2022/06/25 11:07:58;;;;;;;2.60;2.40;;;27.80;43.60;;;;;;6153481;28;80793;-70
2022/06/25 11:10:59;;;;;;;4.28;2.58;;;27.90;43.90;;;;;;6157388;28;80229;-71
2022/06/25 11:13:59;;;;;;;6.25;2.38;;;27.80;45.80;;;;;;6160066;28;80378;-75
2022/06/25 11:17:00;;;;;;;3.00;2.58;;;27.70;45.20;;;;;;6152863;28;80163;-71
2022/06/25 11:20:00;;;;;;;4.30;2.60;;;27.90;44.50;;;;;;6149761;28;80066;-71
2022/06/25 11:23:02;;;;;;;4.03;2.35;;;27.80;45.40;;;;;;6150259;28;80817;-70
2022/06/25 11:29:22;;;;;;;7.40;3.03;;;27.70;46.50;;;;;;6140769;28;83791;-73
2022/06/25 11:32:23;;;;;;;2.20;2.00;;;27.60;46.50;;;;;;6140117;28;82131;-72
2022/06/25 11:35:23;;;;;;;4.35;2.25;;;27.50;47.40;;;;;;6152065;28;86756;-72
2022/06/25 11:38:24;;;;;;;3.13;2.60;;;27.50;46.30;;;;;;6143206;28;81807;-72
2022/06/25 11:41:28;;;;;;;5.32;2.30;;;27.40;46.50;;;;;;6147816;28;81787;-72
2022/06/25 11:44:28;;;;;;;7.07;2.78;;;27.30;45.80;;;;;;6141655;28;80296;-72
2022/06/25 11:47:29;;;;;;;3.13;2.30;;;27.30;45.10;;;;;;6145185;28;81653;-75
2022/06/25 11:50:30;;;;;;;2.33;1.90;;;27.20;45.30;;;;;;6143305;28;80795;-74
2022/06/25 11:53:30;;;;;;;5.60;2.15;;;27.20;44.40;;;;;;6150701;28;80170;-72
2022/06/25 11:56:31;;;;;;;2.40;2.20;;;27.10;45.50;;;;;;6146621;28;80759;-73
2022/06/25 11:59:31;;;;;;;2.72;2.17;;;27.10;45.80;;;;;;6148699;28;81135;-73
2022/06/25 12:02:31;;;;;;;3.97;2.88;;;27.10;45.80;;;;;;6142844;28;80782;-73
2022/06/25 12:05:32;;;;;;;4.60;2.40;;;27.30;46.30;;;;;;6144403;28;80330;-74
2022/06/25 12:08:32;;;;;;;3.35;2.28;;;27.60;45.40;;;;;;6140647;28;82424;-73
2022/06/25 12:11:33;;;;;;;3.25;2.40;;;27.70;45.10;;;;;;6142856;28;81051;-71
2022/06/25 12:14:33;;;;;;;4.68;2.20;;;27.80;45.90;;;;;;6140609;28;80533;-72
2022/06/25 12:17:34;;;;;;;4.40;2.38;;;27.70;46.20;;;;;;6144167;28;81963;-74
2022/06/25 12:20:34;;;;;;;3.45;2.97;;;27.60;46.20;;;;;;6144485;28;80043;-74
2022/06/25 12:23:35;;;;;;;2.85;2.60;;;27.60;45.80;;;;;;6147687;28;80533;-74
2022/06/25 12:26:35;;;;;;;3.13;2.70;;;27.70;45.50;;;;;;6148738;28;81096;-75
2022/06/25 12:29:36;;;;;;;8.02;2.80;;;27.80;45.20;;;;;;6147257;28;80439;-74
2022/06/25 12:32:36;;;;;;;4.18;2.88;;;27.70;45.90;;;;;;6144837;28;80262;-73
2022/06/25 12:35:37;;;;;;;4.32;2.92;;;27.70;46.90;;;;;;6154286;28;80644;-72
2022/06/25 12:38:37;;;;;;;5.45;3.03;;;27.70;46.30;;;;;;6159761;28;81593;-74
2022/06/25 12:41:38;;;;;;;3.15;2.85;;;27.60;46.60;;;;;;6152283;28;80621;-73
2022/06/25 12:44:38;;;;;;;3.53;2.80;;;27.60;48.10;;;;;;6166359;28;82533;-69
2022/06/25 12:47:39;;;;;;;3.55;2.55;;;27.60;49.80;;;;;;6161379;28;80579;-71
2022/06/25 12:50:40;;;;;;;4.07;2.60;;;27.50;48.30;;;;;;6154787;28;80408;-71
2022/06/25 12:53:41;;;;;;;3.55;2.47;;;27.50;47.00;;;;;;6161498;28;80876;-69
2022/06/25 12:56:41;;;;;;;5.53;2.70;;;27.40;48.00;;;;;;6147572;28;81604;-69
2022/06/25 12:59:42;;;;;;;4.22;2.40;;;27.40;47.30;;;;;;6158890;28;80440;-70
2022/06/25 13:02:42;;;;;;;7.75;2.88;;;27.40;48.20;;;;;;6159032;28;80546;-71
2022/06/25 13:05:43;;;;;;;5.40;2.78;;;27.40;48.70;;;;;;6157106;28;81497;-70
2022/06/25 13:08:43;;;;;;;5.88;2.70;;;27.40;47.80;;;;;;6158212;28;80388;-71
2022/06/25 13:11:44;;;;;;;4.60;3.22;;;27.40;48.10;;;;;;6158587;28;80955;-69
2022/06/25 13:14:44;;;;;;;5.55;3.17;;;27.50;47.70;;;;;;6148307;28;80813;-71
2022/06/25 13:17:45;;;;;;;9.88;3.95;;;27.50;48.00;;;;;;6137634;28;83336;-71
2022/06/25 13:20:46;;;;;;;6.55;2.92;;;27.50;47.50;;;;;;6142622;28;80861;-69
2022/06/25 13:23:48;;;;;;;6.30;3.53;;;27.50;47.70;;;;;;6144633;28;81629;-71
2022/06/25 13:26:49;;;;;;;4.07;3.00;;;27.50;47.80;;;;;;6141524;28;80462;-71
2022/06/25 13:29:49;;;;;;;11.88;3.53;;;27.50;48.70;;;;;;6141471;28;81266;-71
2022/06/25 13:32:50;;;;;;;4.57;3.30;;;27.50;48.50;;;;;;6144581;28;81550;-71
2022/06/25 13:35:50;;;;;;;7.88;3.50;;;27.50;48.30;;;;;;6149468;28;80216;-74
2022/06/25 13:38:51;;;;;;;4.13;2.83;;;27.40;48.40;;;;;;6152784;28;81638;-70
2022/06/25 13:41:51;;;;;;;4.90;3.50;;;27.40;48.20;;;;;;6149862;28;82385;-73
2022/06/25 13:44:52;;;;;;;6.22;2.83;;;27.40;48.80;;;;;;6142734;28;80239;-73
2022/06/25 13:47:52;;;;;;;3.53;3.05;;;27.40;48.70;;;;;;6142968;28;80368;-72
2022/06/25 13:50:53;;;;;;;11.95;2.92;;;27.40;49.00;;;;;;6158073;28;80592;-73
2022/06/25 13:53:53;;;;;;;4.55;3.28;;;27.40;48.90;;;;;;6158286;28;80838;-71
2022/06/25 13:56:54;;;;;;;4.40;3.00;;;27.40;49.20;;;;;;6161263;28;81543;-74
2022/06/25 13:59:54;;;;;;;4.70;3.30;;;27.40;49.20;;;;;;6162267;28;80304;-75
2022/06/25 14:02:55;;;;;;;5.20;2.92;;;27.40;49.10;;;;;;6151683;28;80553;-74
2022/06/25 14:05:55;;;;;;;4.75;2.83;;;27.40;49.20;;;;;;6154089;28;80812;-74
2022/06/25 14:08:56;;;;;;;4.55;3.40;;;27.30;49.40;;;;;;6149318;28;80659;-72
2022/06/25 14:11:57;;;;;;;4.95;3.67;;;27.30;49.40;;;;;;6145128;28;80436;-71
2022/06/25 14:14:57;;;;;;;13.15;3.50;;;27.40;49.70;;;;;;6146647;28;80365;-72
2022/06/25 14:18:00;;;;;;;4.57;3.13;;;27.40;49.40;;;;;;6142897;28;80496;-70
2022/06/25 14:21:01;;;;;;;4.55;3.55;;;27.30;49.40;;;;;;6139790;28;81811;-70
2022/06/25 14:24:02;;;;;;;4.05;3.30;;;27.30;49.30;;;;;;6141893;28;82622;-70
2022/06/25 14:27:02;;;;;;;3.97;3.05;;;27.40;49.60;;;;;;6140522;28;81068;-71
2022/06/25 14:30:03;;;;;;;4.78;3.25;;;27.40;49.30;;;;;;6139553;28;80622;-73
2022/06/25 14:33:04;;;;;;;3.92;2.80;;;27.40;48.40;;;;;;6141538;28;81027;-72
2022/06/25 14:42:44;;;;;;;7.65;3.15;;;27.30;49.20;;;;;;6155207;28;81104;-77
2022/06/25 14:45:44;;;;;;;9.93;3.70;;;27.30;49.10;;;;;;6160958;28;80043;-74
2022/06/25 14:48:45;;;;;;;6.82;3.50;;;27.30;49.70;;;;;;6151383;28;83054;-77
2022/06/25 14:51:45;;;;;;;5.95;3.30;;;27.30;49.10;;;;;;6155354;28;80568;-72
2022/06/25 14:54:46;;;;;;;4.03;2.50;;;27.20;49.50;;;;;;6161342;28;80818;-72
2022/06/25 14:57:46;;;;;;;5.43;3.17;;;27.20;48.90;;;;;;6161489;28;81095;-70
2022/06/25 15:00:47;;;;;;;4.43;2.80;;;27.20;48.80;;;;;;6157537;28;80712;-73
2022/06/25 15:03:48;;;;;;;4.25;2.97;;;27.20;49.10;;;;;;6160499;28;80776;-73
2022/06/25 15:06:48;;;;;;;3.55;2.65;;;27.30;49.20;;;;;;6158522;28;81030;-72
2022/06/25 15:09:49;;;;;;;4.30;3.00;;;27.30;49.30;;;;;;6159625;28;80470;-70
2022/06/25 15:12:49;;;;;;;3.60;2.50;;;27.20;49.30;;;;;;6156890;28;80442;-70
2022/06/25 15:15:50;;;;;;;3.42;2.83;;;27.30;48.80;;;;;;6160483;28;80242;-72
2022/06/25 15:18:51;;;;;;;5.70;3.20;;;27.30;48.50;;;;;;6155168;28;80650;-71
2022/06/25 15:21:51;;;;;;;5.18;2.70;;;27.30;48.70;;;;;;6160920;28;80487;-74
2022/06/25 15:24:52;;;;;;;5.25;2.90;;;27.30;48.60;;;;;;6160190;28;80228;-72
2022/06/25 15:27:53;;;;;;;3.92;3.22;;;27.30;49.20;;;;;;6158252;28;80674;-70
2022/06/25 15:30:53;;;;;;;6.47;3.65;;;27.30;49.20;;;;;;6153150;28;80422;-73
2022/06/25 15:33:54;;;;;;;5.18;3.08;;;27.30;49.20;;;;;;6150894;28;81467;-68
2022/06/25 15:36:54;;;;;;;4.93;3.42;;;27.30;49.20;;;;;;6159326;28;80669;-71
2022/06/25 15:39:55;;;;;;;8.18;3.15;;;27.20;49.00;;;;;;6156415;28;81394;-73
2022/06/25 15:42:55;;;;;;;5.85;3.25;;;27.20;48.70;;;;;;6151623;28;80173;-69
2022/06/25 15:45:56;;;;;;;3.53;2.85;;;27.20;49.00;;;;;;6156845;28;80938;-69
2022/06/25 15:48:56;;;;;;;4.18;2.63;;;27.20;49.60;;;;;;6159004;28;80782;-70
2022/06/25 15:51:57;;;;;;;3.92;3.33;;;27.20;49.30;;;;;;6158832;28;80487;-70
2022/06/25 15:54:57;;;;;;;4.82;2.33;;;27.10;49.50;;;;;;6159091;28;80410;-70
2022/06/25 15:57:58;;;;;;;3.03;2.42;;;27.20;49.80;;;;;;6159022;28;80549;-70
2022/06/25 16:00:58;;;;;;;6.15;3.20;;;27.10;50.10;;;;;;6158492;28;80280;-70
2022/06/25 16:03:59;;;;;;;5.90;3.40;;;27.20;49.80;;;;;;6155610;28;80894;-70